createdAt,value
2022-10-01T00:00:30.413Z,10.50
2022-10-01T00:02:58.498Z,10.40
2022-10-01T00:05:40.458Z,10.40
2022-10-01T00:08:27.688Z,10.30
2022-10-01T00:11:01.180Z,10.40
2022-10-01T00:13:39.889Z,10.50
2022-10-01T00:16:16.077Z,10.50
2022-10-01T00:19:07.519Z,10.60
2022-10-01T00:21:56.390Z,10.50
2022-10-01T00:24:28.454Z,10.50
2022-10-01T00:27:04.504Z,10.50
2022-10-01T00:29:44.617Z,10.50
2022-10-01T00:32:19.107Z,10.50
2022-10-01T00:35:04.729Z,10.50
2022-10-01T00:37:48.606Z,10.50
2022-10-01T00:40:21.394Z,10.60
2022-10-01T00:42:55.286Z,10.60
2022-10-01T00:45:33.575Z,10.70
2022-10-01T00:48:14.127Z,10.80
2022-10-01T00:50:50.811Z,10.90
2022-10-01T00:53:27.005Z,11.10
2022-10-01T00:56:02.111Z,11.10
2022-10-01T00:58:46.262Z,11.10
2022-10-01T01:01:22.629Z,11.10
2022-10-01T01:03:56.894Z,11.20
2022-10-01T01:06:33.409Z,11.10
2022-10-01T01:09:07.370Z,11.20
2022-10-01T01:11:38.185Z,11.20
2022-10-01T01:14:11.415Z,11.10
2022-10-01T01:16:48.708Z,11.10
2022-10-01T01:19:47.463Z,11.10
2022-10-01T01:22:17.420Z,10.90
2022-10-01T01:24:56.764Z,10.80
2022-10-01T01:27:37.998Z,10.80
2022-10-01T01:30:11.859Z,10.70
2022-10-01T01:32:51.483Z,10.70
2022-10-01T01:35:32.892Z,10.60
2022-10-01T01:38:23.965Z,10.60
2022-10-01T01:41:02.381Z,10.60
2022-10-01T01:43:44.102Z,10.60
2022-10-01T01:46:16.078Z,10.60
2022-10-01T01:48:55.500Z,10.60
2022-10-01T01:51:40.386Z,10.60
2022-10-01T01:54:15.552Z,10.60
2022-10-01T01:56:51.291Z,10.60
2022-10-01T01:59:19.909Z,10.60
2022-10-01T02:01:53.067Z,10.60
2022-10-01T02:04:26.772Z,10.50
2022-10-01T02:07:13.788Z,10.50
2022-10-01T02:10:04.042Z,10.60
2022-10-01T02:12:51.474Z,10.60
2022-10-01T02:15:33.727Z,10.70
2022-10-01T02:21:13.707Z,10.80
2022-10-01T02:23:57.513Z,10.80
2022-10-01T02:26:31.783Z,10.80
2022-10-01T02:29:09.774Z,10.80
2022-10-01T02:31:46.024Z,10.80
2022-10-01T02:34:20.523Z,10.80
2022-10-01T02:36:55.552Z,10.90
2022-10-01T02:39:40.896Z,10.90
2022-10-01T02:42:18.886Z,10.80
2022-10-01T02:45:01.927Z,10.80
2022-10-01T02:47:45.441Z,10.80
2022-10-01T02:50:20.455Z,10.90
2022-10-01T02:52:59.459Z,10.90
2022-10-01T02:55:38.670Z,10.90
2022-10-01T02:58:08.600Z,10.90
2022-10-01T03:00:43.805Z,11.00
2022-10-01T03:03:19.748Z,11.00
2022-10-01T03:06:18.938Z,11.10
2022-10-01T03:08:52.024Z,11.10
2022-10-01T03:11:24.002Z,11.10
2022-10-01T03:14:00.355Z,11.20
2022-10-01T03:16:36.489Z,11.20
2022-10-01T03:19:07.629Z,11.20
2022-10-01T03:21:45.435Z,11.20
2022-10-01T03:24:19.512Z,11.20
2022-10-01T03:27:00.638Z,11.20
2022-10-01T03:29:32.580Z,11.20
2022-10-01T03:32:38.281Z,11.30
2022-10-01T03:35:12.314Z,11.30
2022-10-01T03:37:57.004Z,11.40
2022-10-01T03:40:34.085Z,11.40
2022-10-01T03:43:03.741Z,11.40
2022-10-01T03:45:39.111Z,11.40
2022-10-01T03:48:09.546Z,11.50
2022-10-01T03:50:48.492Z,11.50
2022-10-01T03:53:30.045Z,11.50
2022-10-01T03:55:58.335Z,11.40
2022-10-01T03:58:34.833Z,11.50
2022-10-01T04:01:29.737Z,11.60
2022-10-01T04:04:02.141Z,11.60
2022-10-01T04:06:39.061Z,11.60
2022-10-01T04:09:23.948Z,11.60
2022-10-01T04:11:53.058Z,11.60
2022-10-01T04:14:50.819Z,11.60
2022-10-01T04:17:27.256Z,11.60
2022-10-01T04:20:13.113Z,11.50
2022-10-01T04:22:51.529Z,11.50
2022-10-01T04:25:54.442Z,11.50
2022-10-01T04:28:30.411Z,11.40
2022-10-01T04:31:20.349Z,11.50
2022-10-01T04:33:55.214Z,11.50
2022-10-01T04:36:28.627Z,11.50
2022-10-01T04:39:02.630Z,11.50
2022-10-01T04:41:50.131Z,11.50
2022-10-01T04:44:37.808Z,11.50
2022-10-01T04:47:19.969Z,11.50
2022-10-01T04:49:52.239Z,11.60
2022-10-01T04:52:35.693Z,11.60
2022-10-01T04:55:24.561Z,11.50
2022-10-01T04:57:53.453Z,11.50
2022-10-01T05:00:24.880Z,11.50
2022-10-01T05:03:06.444Z,11.60
2022-10-01T05:05:39.836Z,11.60
2022-10-01T05:08:13.773Z,11.70
2022-10-01T05:10:49.715Z,11.60
2022-10-01T05:13:19.222Z,11.70
2022-10-01T05:15:51.603Z,11.90
2022-10-01T05:18:19.014Z,12.00
2022-10-01T05:20:49.354Z,12.00
2022-10-01T05:23:16.422Z,12.00
2022-10-01T05:26:00.256Z,12.00
2022-10-01T05:28:45.239Z,12.00
2022-10-01T05:31:39.051Z,12.00
2022-10-01T05:34:11.709Z,11.90
2022-10-01T05:36:49.057Z,11.80
2022-10-01T05:39:19.882Z,11.80
2022-10-01T05:41:52.414Z,11.90
2022-10-01T05:44:26.340Z,11.80
2022-10-01T05:47:00.876Z,11.90
2022-10-01T05:49:48.961Z,11.90
2022-10-01T05:52:21.445Z,11.90
2022-10-01T05:54:56.584Z,12.10
2022-10-01T05:57:26.911Z,12.20
2022-10-01T06:00:02.580Z,12.30
2022-10-01T06:02:35.561Z,12.30
2022-10-01T06:05:08.215Z,12.30
2022-10-01T06:07:44.306Z,12.40
2022-10-01T06:10:14.040Z,12.40
2022-10-01T06:12:54.797Z,12.40
2022-10-01T06:15:21.475Z,12.30
2022-10-01T06:18:03.012Z,12.30
2022-10-01T06:20:36.489Z,12.30
2022-10-01T06:23:24.625Z,12.30
2022-10-01T06:26:00.674Z,12.30
2022-10-01T06:28:34.650Z,12.60
2022-10-01T06:31:21.392Z,12.70
2022-10-01T06:33:51.351Z,12.80
2022-10-01T06:36:43.183Z,12.80
2022-10-01T06:39:14.000Z,12.80
2022-10-01T06:41:48.503Z,12.60
2022-10-01T06:44:46.051Z,12.60
2022-10-01T06:47:13.728Z,12.60
2022-10-01T06:49:47.456Z,12.60
2022-10-01T06:52:37.450Z,12.50
2022-10-01T06:55:16.492Z,12.70
2022-10-01T06:57:47.172Z,13.00
2022-10-01T07:00:20.127Z,13.00
2022-10-01T07:02:52.668Z,13.00
2022-10-01T07:05:37.798Z,13.10
2022-10-01T07:08:16.172Z,13.10
2022-10-01T07:10:49.027Z,12.90
2022-10-01T07:13:28.103Z,12.80
2022-10-01T07:16:22.682Z,12.80
2022-10-01T07:18:57.614Z,12.80
2022-10-01T07:21:25.122Z,13.00
2022-10-01T07:23:58.319Z,12.80
2022-10-01T07:26:37.223Z,12.80
2022-10-01T07:29:04.682Z,12.60
2022-10-01T07:34:44.345Z,12.70
2022-10-01T07:37:18.306Z,12.60
2022-10-01T07:39:52.689Z,12.50
2022-10-01T07:42:25.518Z,12.40
2022-10-01T07:45:01.107Z,12.30
2022-10-01T07:47:31.349Z,12.10
2022-10-01T07:50:09.816Z,12.30
2022-10-01T07:55:31.137Z,12.10
2022-10-01T07:58:04.841Z,12.20
2022-10-01T08:00:33.668Z,12.30
2022-10-01T08:03:05.226Z,12.40
2022-10-01T08:05:56.749Z,12.40
2022-10-01T08:08:28.524Z,12.40
2022-10-01T08:10:59.273Z,12.40
2022-10-01T08:13:36.071Z,12.30
2022-10-01T08:16:13.290Z,12.30
2022-10-01T08:18:57.573Z,12.30
2022-10-01T08:21:44.299Z,12.30
2022-10-01T08:24:14.143Z,12.20
2022-10-01T08:26:51.602Z,12.30
2022-10-01T08:29:24.288Z,12.30
2022-10-01T08:32:10.454Z,12.30
2022-10-01T08:34:43.937Z,12.40
2022-10-01T08:37:18.771Z,12.40
2022-10-01T08:40:09.123Z,12.30
2022-10-01T08:43:03.356Z,12.30
2022-10-01T08:45:52.163Z,12.40
2022-10-01T08:48:26.387Z,12.40
2022-10-01T08:51:01.384Z,12.20
2022-10-01T08:53:58.621Z,12.20
2022-10-01T09:02:59.721Z,12.80
2022-10-01T09:09:15.564Z,13.00
2022-10-01T09:11:46.419Z,13.10
2022-10-01T09:14:22.377Z,13.00
2022-10-01T09:16:55.048Z,13.00
2022-10-01T09:19:40.918Z,13.00
2022-10-01T09:22:15.500Z,13.20
2022-10-01T09:24:51.268Z,13.20
2022-10-01T09:27:18.858Z,13.20
2022-10-01T09:29:55.977Z,13.10
2022-10-01T09:32:24.529Z,13.30
2022-10-01T09:34:51.783Z,13.40
2022-10-01T09:39:14.884Z,13.50
2022-10-01T09:45:12.431Z,13.80
2022-10-01T09:51:09.669Z,14.10
2022-10-01T09:53:42.250Z,14.20
2022-10-01T09:56:14.813Z,14.40
2022-10-01T09:58:44.884Z,14.70
2022-10-01T10:01:21.711Z,14.90
2022-10-01T10:03:55.635Z,15.00
2022-10-01T10:06:27.192Z,15.00
2022-10-01T10:08:55.126Z,15.10
2022-10-01T10:11:23.806Z,15.30
2022-10-01T10:13:56.052Z,15.20
2022-10-01T10:16:27.277Z,15.10
2022-10-01T10:18:56.633Z,15.50
2022-10-01T10:21:25.395Z,15.70
2022-10-01T10:23:53.110Z,15.50
2022-10-01T10:26:38.295Z,15.40
2022-10-01T10:29:06.351Z,15.40
2022-10-01T10:31:41.563Z,15.30
2022-10-01T10:34:14.073Z,15.40
2022-10-01T10:36:41.751Z,15.60
2022-10-01T10:39:30.719Z,15.80
2022-10-01T10:41:58.424Z,15.80
2022-10-01T10:44:26.104Z,15.70
2022-10-01T10:46:53.590Z,15.70
2022-10-01T10:49:26.224Z,15.80
2022-10-01T10:51:53.994Z,15.90
2022-10-01T10:54:31.774Z,16.10
2022-10-01T10:57:02.108Z,16.00
2022-10-01T10:59:31.032Z,16.10
2022-10-01T11:01:58.323Z,16.20
2022-10-01T11:04:32.690Z,16.50
2022-10-01T11:07:01.501Z,16.70
2022-10-01T11:09:31.223Z,16.80
2022-10-01T11:12:07.315Z,16.60
2022-10-01T11:14:34.062Z,16.50
2022-10-01T11:17:06.007Z,16.30
2022-10-01T11:19:41.700Z,16.30
2022-10-01T11:22:40.859Z,16.20
2022-10-01T11:25:10.662Z,16.10
2022-10-01T11:27:46.728Z,16.10
2022-10-01T11:30:19.492Z,16.20
2022-10-01T11:33:06.369Z,16.00
2022-10-01T11:35:49.294Z,15.90
2022-10-01T11:38:36.173Z,15.90
2022-10-01T11:41:05.984Z,15.80
2022-10-01T11:43:38.850Z,16.00
2022-10-01T11:46:09.643Z,16.10
2022-10-01T11:48:51.137Z,16.20
2022-10-01T11:51:20.648Z,16.20
2022-10-01T11:53:50.324Z,16.30
2022-10-01T11:56:38.935Z,16.40
2022-10-01T11:59:21.524Z,17.00
2022-10-01T12:02:12.993Z,17.30
2022-10-01T12:04:43.291Z,17.40
2022-10-01T12:07:20.321Z,17.60
2022-10-01T12:09:47.223Z,17.30
2022-10-01T12:12:17.185Z,17.10
2022-10-01T12:14:44.101Z,16.80
2022-10-01T12:17:26.337Z,17.00
2022-10-01T12:19:54.940Z,17.00
2022-10-01T12:22:25.579Z,17.10
2022-10-01T12:24:52.455Z,17.20
2022-10-01T12:27:29.206Z,17.40
2022-10-01T12:29:55.739Z,17.60
2022-10-01T12:32:25.426Z,17.60
2022-10-01T12:35:11.432Z,17.40
2022-10-01T12:37:57.148Z,17.60
2022-10-01T12:40:51.952Z,17.70
2022-10-01T12:43:37.931Z,17.60
2022-10-01T12:46:28.977Z,17.50
2022-10-01T12:49:13.953Z,17.40
2022-10-01T12:51:41.671Z,17.40
2022-10-01T12:54:14.459Z,17.30
2022-10-01T12:56:45.158Z,17.40
2022-10-01T12:59:14.715Z,17.80
2022-10-01T13:01:56.708Z,18.20
2022-10-01T13:04:23.333Z,18.00
2022-10-01T13:07:08.593Z,17.70
2022-10-01T13:09:56.296Z,17.60
2022-10-01T13:12:38.005Z,17.40
2022-10-01T13:15:05.476Z,17.40
2022-10-01T13:17:36.672Z,17.50
2022-10-01T13:20:11.867Z,17.50
2022-10-01T13:22:44.506Z,17.50
2022-10-01T13:25:29.919Z,17.50
2022-10-01T13:28:05.959Z,17.40
2022-10-01T13:30:35.561Z,17.20
2022-10-01T13:33:02.645Z,17.00
2022-10-01T13:35:35.531Z,17.10
2022-10-01T13:38:21.773Z,17.20
2022-10-01T13:40:56.804Z,17.20
2022-10-01T13:43:24.206Z,17.40
2022-10-01T13:45:51.846Z,17.40
2022-10-01T13:48:33.281Z,17.30
2022-10-01T13:51:03.307Z,17.20
2022-10-01T13:53:37.987Z,17.30
2022-10-01T13:56:05.092Z,17.30
2022-10-01T13:58:38.676Z,17.30
2022-10-01T14:01:25.599Z,17.20
2022-10-01T14:04:05.191Z,17.20
2022-10-01T14:06:38.259Z,17.20
2022-10-01T14:09:23.198Z,17.00
2022-10-01T14:12:10.539Z,16.90
2022-10-01T14:14:55.687Z,16.90
2022-10-01T14:17:24.727Z,16.80
2022-10-01T14:19:51.486Z,16.90
2022-10-01T14:22:32.529Z,16.80
2022-10-01T14:24:59.028Z,16.90
2022-10-01T14:27:35.260Z,16.80
2022-10-01T14:30:12.761Z,16.80
2022-10-01T14:32:48.883Z,17.00
2022-10-01T14:35:36.705Z,17.00
2022-10-01T14:38:10.288Z,17.00
2022-10-01T14:40:40.042Z,17.10
2022-10-01T14:43:15.177Z,17.10
2022-10-01T14:45:52.110Z,17.20
2022-10-01T14:48:18.856Z,17.20
2022-10-01T14:50:50.933Z,17.10
2022-10-01T14:53:18.807Z,17.00
2022-10-01T14:55:47.042Z,17.10
2022-10-01T14:58:20.347Z,17.10
2022-10-01T15:00:49.528Z,17.10
2022-10-01T15:03:16.251Z,17.00
2022-10-01T15:06:16.594Z,17.10
2022-10-01T15:11:44.982Z,16.70
2022-10-01T15:14:15.817Z,16.60
2022-10-01T15:16:52.808Z,16.40
2022-10-01T15:22:20.359Z,16.20
2022-10-01T15:25:28.908Z,16.10
2022-10-01T15:28:57.773Z,16.10
2022-10-01T15:31:24.423Z,16.00
2022-10-01T15:33:51.268Z,15.90
2022-10-01T15:36:18.698Z,15.80
2022-10-01T15:38:46.619Z,15.80
2022-10-01T15:41:31.638Z,15.70
2022-10-01T15:44:00.402Z,15.70
2022-10-01T15:46:31.072Z,15.80
2022-10-01T15:49:18.044Z,15.80
2022-10-01T15:52:20.375Z,15.80
2022-10-01T15:54:48.430Z,15.90
2022-10-01T15:57:17.487Z,15.80
2022-10-01T15:59:44.522Z,15.80
2022-10-01T16:02:18.637Z,15.80
2022-10-01T16:04:46.111Z,15.70
2022-10-01T16:07:20.544Z,15.80
2022-10-01T16:09:56.551Z,15.70
2022-10-01T16:12:23.468Z,15.60
2022-10-01T16:14:57.586Z,15.60
2022-10-01T16:17:28.808Z,15.60
2022-10-01T16:19:57.128Z,15.60
2022-10-01T16:22:34.316Z,15.60
2022-10-01T16:25:02.868Z,15.70
2022-10-01T16:27:29.393Z,15.70
2022-10-01T16:30:04.979Z,15.80
2022-10-01T16:32:32.722Z,15.90
2022-10-01T16:35:15.208Z,16.10
2022-10-01T16:37:42.006Z,15.90
2022-10-01T16:40:10.749Z,15.90
2022-10-01T16:42:41.157Z,15.80
2022-10-01T16:45:13.541Z,15.80
2022-10-01T16:47:41.778Z,15.70
2022-10-01T16:50:12.796Z,15.70
2022-10-01T16:52:40.130Z,15.60
2022-10-01T16:55:12.741Z,15.70
2022-10-01T16:57:39.625Z,15.60
2022-10-01T17:00:06.456Z,15.60
2022-10-01T17:02:33.004Z,15.60
2022-10-01T17:05:00.792Z,15.60
2022-10-01T17:07:27.384Z,15.50
2022-10-01T17:09:53.939Z,15.40
2022-10-01T17:12:20.631Z,15.40
2022-10-01T17:14:47.177Z,15.40
2022-10-01T17:17:13.752Z,15.40
2022-10-01T17:19:40.298Z,15.40
2022-10-01T17:22:08.419Z,15.40
2022-10-01T17:24:35.085Z,15.50
2022-10-01T17:27:02.695Z,15.60
2022-10-01T17:29:31.758Z,15.50
2022-10-01T17:31:58.368Z,15.60
2022-10-01T17:34:26.063Z,15.70
2022-10-01T17:36:52.684Z,15.80
2022-10-01T17:39:19.292Z,15.80
2022-10-01T17:41:45.848Z,15.80
2022-10-01T17:44:12.465Z,15.70
2022-10-01T17:46:38.995Z,15.70
2022-10-01T17:49:05.716Z,15.70
2022-10-01T17:51:32.320Z,15.70
2022-10-01T17:54:02.418Z,15.70
2022-10-01T17:56:32.567Z,15.70
2022-10-01T17:58:59.846Z,16.00
2022-10-01T18:01:26.483Z,16.20
2022-10-01T18:03:55.421Z,16.30
2022-10-01T18:06:22.510Z,16.40
2022-10-01T18:08:56.884Z,16.10
2022-10-01T18:11:25.014Z,16.00
2022-10-01T18:13:52.405Z,15.90
2022-10-01T18:16:19.773Z,15.90
2022-10-01T18:21:33.147Z,15.70
2022-10-01T18:24:04.147Z,15.50
2022-10-01T18:26:31.299Z,15.70
2022-10-01T18:28:57.971Z,15.70
2022-10-01T18:31:28.782Z,15.60
2022-10-01T18:33:57.442Z,15.60
2022-10-01T18:36:37.892Z,15.60
2022-10-01T18:39:14.054Z,15.60
2022-10-01T18:41:41.388Z,15.50
2022-10-01T18:44:10.041Z,15.40
2022-10-01T18:46:42.609Z,15.40
2022-10-01T18:49:16.931Z,15.80
2022-10-01T18:51:53.490Z,15.70
2022-10-01T18:54:39.011Z,15.90
2022-10-01T18:57:24.326Z,15.90
2022-10-01T18:59:50.943Z,15.90
2022-10-01T19:02:27.446Z,16.00
2022-10-01T19:05:01.618Z,16.10
2022-10-01T19:07:47.010Z,15.90
2022-10-01T19:10:24.110Z,15.90
2022-10-01T19:12:55.246Z,15.90
2022-10-01T19:15:47.419Z,15.90
2022-10-01T19:18:13.964Z,15.80
2022-10-01T19:20:54.223Z,15.70
2022-10-01T19:23:20.750Z,16.00
2022-10-01T19:25:49.912Z,15.90
2022-10-01T19:28:25.231Z,16.00
2022-10-01T19:31:04.067Z,16.10
2022-10-01T19:33:32.250Z,16.20
2022-10-01T19:35:59.581Z,16.20
2022-10-01T19:38:37.883Z,16.20
2022-10-01T19:41:16.096Z,16.20
2022-10-01T19:43:45.757Z,16.10
2022-10-01T19:46:16.346Z,16.00
2022-10-01T19:48:49.016Z,16.10
2022-10-01T19:51:18.326Z,16.10
2022-10-01T19:53:46.207Z,16.00
2022-10-01T19:56:15.202Z,15.90
2022-10-01T19:58:41.758Z,15.90
2022-10-01T20:01:11.938Z,15.90
2022-10-01T20:03:39.629Z,15.70
2022-10-01T20:06:12.326Z,16.00
2022-10-01T20:08:38.883Z,16.20
2022-10-01T20:11:05.519Z,16.40
2022-10-01T20:13:41.165Z,16.40
2022-10-01T20:16:12.521Z,16.60
2022-10-01T20:19:19.754Z,16.60
2022-10-01T20:21:59.608Z,16.50
2022-10-01T20:24:28.811Z,16.30
2022-10-01T20:27:03.795Z,16.30
2022-10-01T20:29:43.302Z,16.20
2022-10-01T20:32:20.101Z,16.30
2022-10-01T20:34:54.790Z,16.40
2022-10-01T20:37:34.793Z,16.20
2022-10-01T20:40:10.541Z,16.10
2022-10-01T20:42:39.287Z,16.20
2022-10-01T20:45:13.164Z,16.10
2022-10-01T20:47:48.417Z,16.00
2022-10-01T20:50:20.637Z,16.10
2022-10-01T20:52:51.958Z,16.00
2022-10-01T20:55:26.632Z,16.00
2022-10-01T20:57:55.731Z,15.90
2022-10-01T21:00:23.776Z,15.70
2022-10-01T21:03:05.685Z,15.70
2022-10-01T21:05:39.248Z,15.80
2022-10-01T21:08:28.287Z,15.80
2022-10-01T21:10:58.030Z,16.10
2022-10-01T21:13:30.446Z,16.20
2022-10-01T21:16:12.441Z,16.10
2022-10-01T21:19:02.377Z,16.00
2022-10-01T21:21:35.191Z,15.90
2022-10-01T21:24:01.761Z,15.70
2022-10-01T21:26:35.604Z,15.60
2022-10-01T21:29:22.062Z,15.70
2022-10-01T21:32:06.388Z,15.70
2022-10-01T21:34:53.403Z,15.60
2022-10-01T21:37:30.581Z,15.60
2022-10-01T21:40:22.363Z,15.50
2022-10-01T21:42:55.181Z,15.60
2022-10-01T21:45:28.668Z,15.80
2022-10-01T21:47:55.244Z,15.80
2022-10-01T21:50:21.828Z,15.60
2022-10-01T21:52:54.479Z,15.50
2022-10-01T21:55:30.126Z,15.40
2022-10-01T21:58:05.730Z,15.40
2022-10-01T22:00:32.691Z,15.40
2022-10-01T22:03:09.617Z,15.30
2022-10-01T22:05:56.448Z,15.30
2022-10-01T22:08:42.197Z,15.30
2022-10-01T22:11:12.042Z,15.20
2022-10-01T22:13:42.157Z,15.10
2022-10-01T22:16:12.109Z,15.20
2022-10-01T22:18:49.921Z,15.20
2022-10-01T22:21:24.989Z,15.30
2022-10-01T22:24:24.774Z,15.30
2022-10-01T22:27:01.642Z,15.20
2022-10-01T22:29:29.670Z,15.10
2022-10-01T22:31:58.982Z,15.10
2022-10-01T22:34:27.970Z,15.10
2022-10-01T22:37:07.400Z,15.30
2022-10-01T22:39:37.389Z,15.30
2022-10-01T22:42:03.942Z,15.30
2022-10-01T22:44:30.600Z,15.30
2022-10-01T22:47:15.965Z,15.20
2022-10-01T22:50:01.504Z,15.20
2022-10-01T22:52:35.526Z,15.20
2022-10-01T22:55:18.267Z,15.30
2022-10-01T22:58:11.465Z,15.20
2022-10-01T23:00:49.240Z,15.20
2022-10-01T23:03:31.860Z,15.30
2022-10-01T23:06:26.233Z,15.40
2022-10-01T23:09:07.382Z,15.50
2022-10-01T23:11:40.540Z,15.50
2022-10-01T23:14:19.361Z,15.40
2022-10-01T23:16:52.166Z,15.50
2022-10-01T23:19:37.417Z,15.50
2022-10-01T23:22:03.937Z,15.40
2022-10-01T23:24:50.188Z,15.40
2022-10-01T23:27:19.783Z,15.40
2022-10-01T23:29:55.621Z,15.30
2022-10-01T23:32:34.500Z,15.20
2022-10-01T23:35:04.110Z,15.20
2022-10-01T23:37:54.982Z,15.20
2022-10-01T23:40:22.595Z,15.20
2022-10-01T23:42:56.777Z,15.30
2022-10-01T23:45:26.470Z,15.40
2022-10-01T23:47:56.043Z,15.20
2022-10-01T23:50:29.738Z,15.30
2022-10-01T23:53:03.305Z,15.20
2022-10-01T23:56:01.340Z,15.20
2022-10-01T23:58:30.029Z,15.50
